sensor_id;sensor_type;location;lat;lon;timestamp;temperature;humidity
12229;DHT22;6177;52.402;9.800;2022-09-12T00:01:43;13.80;89.30
12229;DHT22;6177;52.402;9.800;2022-09-12T00:04:28;13.80;89.30
12229;DHT22;6177;52.402;9.800;2022-09-12T00:07:13;13.80;89.30
12229;DHT22;6177;52.402;9.800;2022-09-12T00:09:57;13.80;89.30
12229;DHT22;6177;52.402;9.800;2022-09-12T00:12:42;13.70;89.30
12229;DHT22;6177;52.402;9.800;2022-09-12T00:15:26;13.70;89.30
12229;DHT22;6177;52.402;9.800;2022-09-12T00:18:14;13.70;89.30
12229;DHT22;6177;52.402;9.800;2022-09-12T00:21:03;13.70;89.30
12229;DHT22;6177;52.402;9.800;2022-09-12T00:23:50;13.60;89.30
12229;DHT22;6177;52.402;9.800;2022-09-12T00:26:35;13.60;89.40
12229;DHT22;6177;52.402;9.800;2022-09-12T00:29:20;13.60;89.40
12229;DHT22;6177;52.402;9.800;2022-09-12T00:32:05;13.50;89.40
12229;DHT22;6177;52.402;9.800;2022-09-12T00:34:50;13.50;89.50
12229;DHT22;6177;52.402;9.800;2022-09-12T00:37:35;13.40;89.50
12229;DHT22;6177;52.402;9.800;2022-09-12T00:40:19;13.40;89.70
12229;DHT22;6177;52.402;9.800;2022-09-12T00:43:04;13.40;89.80
12229;DHT22;6177;52.402;9.800;2022-09-12T00:45:49;13.30;90.00
12229;DHT22;6177;52.402;9.800;2022-09-12T00:48:41;13.30;90.20
12229;DHT22;6177;52.402;9.800;2022-09-12T00:51:28;13.30;90.30
12229;DHT22;6177;52.402;9.800;2022-09-12T00:54:19;13.30;90.30
12229;DHT22;6177;52.402;9.800;2022-09-12T00:57:07;13.30;90.40
12229;DHT22;6177;52.402;9.800;2022-09-12T01:00:07;13.30;90.40
12229;DHT22;6177;52.402;9.800;2022-09-12T01:03:08;13.30;90.50
12229;DHT22;6177;52.402;9.800;2022-09-12T01:06:01;13.30;90.50
12229;DHT22;6177;52.402;9.800;2022-09-12T01:08:50;13.20;90.50
12229;DHT22;6177;52.402;9.800;2022-09-12T01:11:36;13.20;90.60
12229;DHT22;6177;52.402;9.800;2022-09-12T01:14:23;13.10;90.60
12229;DHT22;6177;52.402;9.800;2022-09-12T01:17:12;13.10;90.60
12229;DHT22;6177;52.402;9.800;2022-09-12T01:26:59;13.00;90.60
12229;DHT22;6177;52.402;9.800;2022-09-12T01:36:27;12.90;90.80
12229;DHT22;6177;52.402;9.800;2022-09-12T01:39:43;12.90;90.70
12229;DHT22;6177;52.402;9.800;2022-09-12T01:45:39;12.80;90.90
12229;DHT22;6177;52.402;9.800;2022-09-12T01:48:36;12.80;90.90
12229;DHT22;6177;52.402;9.800;2022-09-12T01:51:36;12.80;90.90
12229;DHT22;6177;52.402;9.800;2022-09-12T01:54:26;12.80;91.00
12229;DHT22;6177;52.402;9.800;2022-09-12T01:57:34;12.80;91.10
12229;DHT22;6177;52.402;9.800;2022-09-12T02:00:20;12.80;91.10
12229;DHT22;6177;52.402;9.800;2022-09-12T02:03:11;12.70;91.10
12229;DHT22;6177;52.402;9.800;2022-09-12T02:06:07;12.70;91.10
12229;DHT22;6177;52.402;9.800;2022-09-12T02:09:20;12.70;91.10
12229;DHT22;6177;52.402;9.800;2022-09-12T02:12:08;12.70;91.00
12229;DHT22;6177;52.402;9.800;2022-09-12T02:14:59;12.70;91.20
12229;DHT22;6177;52.402;9.800;2022-09-12T02:17:49;12.70;91.20
12229;DHT22;6177;52.402;9.800;2022-09-12T02:20:37;12.70;91.20
12229;DHT22;6177;52.402;9.800;2022-09-12T02:23:26;12.70;91.20
12229;DHT22;6177;52.402;9.800;2022-09-12T02:26:21;12.60;91.20
12229;DHT22;6177;52.402;9.800;2022-09-12T02:29:10;12.60;91.20
12229;DHT22;6177;52.402;9.800;2022-09-12T02:32:10;12.60;91.20
12229;DHT22;6177;52.402;9.800;2022-09-12T02:35:09;12.60;91.20
12229;DHT22;6177;52.402;9.800;2022-09-12T02:38:06;12.60;91.30
12229;DHT22;6177;52.402;9.800;2022-09-12T02:40:53;12.50;91.30
12229;DHT22;6177;52.402;9.800;2022-09-12T02:43:38;12.50;91.40
12229;DHT22;6177;52.402;9.800;2022-09-12T02:46:32;12.50;91.40
12229;DHT22;6177;52.402;9.800;2022-09-12T02:49:19;12.50;91.40
12229;DHT22;6177;52.402;9.800;2022-09-12T02:52:03;12.50;91.50
12229;DHT22;6177;52.402;9.800;2022-09-12T02:54:49;12.40;91.50
12229;DHT22;6177;52.402;9.800;2022-09-12T02:57:34;12.40;91.60
12229;DHT22;6177;52.402;9.800;2022-09-12T03:00:18;12.40;91.60
12229;DHT22;6177;52.402;9.800;2022-09-12T03:09:46;12.40;91.60
12229;DHT22;6177;52.402;9.800;2022-09-12T03:12:45;12.30;91.60
12229;DHT22;6177;52.402;9.800;2022-09-12T03:22:45;12.30;91.50
12229;DHT22;6177;52.402;9.800;2022-09-12T03:28:18;12.20;91.70
12229;DHT22;6177;52.402;9.800;2022-09-12T03:31:15;12.20;91.80
12229;DHT22;6177;52.402;9.800;2022-09-12T03:34:00;12.20;91.80
12229;DHT22;6177;52.402;9.800;2022-09-12T03:36:44;12.20;92.00
12229;DHT22;6177;52.402;9.800;2022-09-12T03:39:29;12.20;92.30
12229;DHT22;6177;52.402;9.800;2022-09-12T03:42:14;12.20;92.10
12229;DHT22;6177;52.402;9.800;2022-09-12T03:44:58;12.20;92.20
12229;DHT22;6177;52.402;9.800;2022-09-12T03:47:43;12.20;92.30
12229;DHT22;6177;52.402;9.800;2022-09-12T03:50:28;12.20;92.30
12229;DHT22;6177;52.402;9.800;2022-09-12T03:53:12;12.20;92.40
12229;DHT22;6177;52.402;9.800;2022-09-12T03:55:57;12.20;92.40
12229;DHT22;6177;52.402;9.800;2022-09-12T03:58:41;12.20;92.40
12229;DHT22;6177;52.402;9.800;2022-09-12T04:01:26;12.10;92.40
12229;DHT22;6177;52.402;9.800;2022-09-12T04:04:11;12.10;92.50
12229;DHT22;6177;52.402;9.800;2022-09-12T04:06:55;12.10;92.50
12229;DHT22;6177;52.402;9.800;2022-09-12T04:09:40;12.10;92.50
12229;DHT22;6177;52.402;9.800;2022-09-12T04:12:24;12.10;92.50
12229;DHT22;6177;52.402;9.800;2022-09-12T04:15:09;12.10;92.50
12229;DHT22;6177;52.402;9.800;2022-09-12T04:17:54;12.10;92.60
12229;DHT22;6177;52.402;9.800;2022-09-12T04:20:38;12.10;92.70
12229;DHT22;6177;52.402;9.800;2022-09-12T04:23:23;12.10;92.80
12229;DHT22;6177;52.402;9.800;2022-09-12T04:26:08;12.10;92.80
12229;DHT22;6177;52.402;9.800;2022-09-12T04:28:53;12.10;92.80
12229;DHT22;6177;52.402;9.800;2022-09-12T04:31:39;12.10;92.80
12229;DHT22;6177;52.402;9.800;2022-09-12T04:34:24;12.10;92.90
12229;DHT22;6177;52.402;9.800;2022-09-12T04:37:08;12.10;92.90
12229;DHT22;6177;52.402;9.800;2022-09-12T04:39:54;12.10;92.90
12229;DHT22;6177;52.402;9.800;2022-09-12T04:42:41;12.10;93.00
12229;DHT22;6177;52.402;9.800;2022-09-12T04:45:25;12.00;92.90
12229;DHT22;6177;52.402;9.800;2022-09-12T04:48:10;12.10;93.00
12229;DHT22;6177;52.402;9.800;2022-09-12T04:50:54;12.00;93.00
12229;DHT22;6177;52.402;9.800;2022-09-12T04:53:39;12.10;93.10
12229;DHT22;6177;52.402;9.800;2022-09-12T04:56:24;12.10;93.10
12229;DHT22;6177;52.402;9.800;2022-09-12T04:59:11;12.10;93.20
12229;DHT22;6177;52.402;9.800;2022-09-12T05:01:56;12.10;93.20
12229;DHT22;6177;52.402;9.800;2022-09-12T05:04:41;12.20;93.30
12229;DHT22;6177;52.402;9.800;2022-09-12T05:07:25;12.20;93.30
12229;DHT22;6177;52.402;9.800;2022-09-12T05:10:10;12.20;93.30
12229;DHT22;6177;52.402;9.800;2022-09-12T05:12:56;12.20;93.30
12229;DHT22;6177;52.402;9.800;2022-09-12T05:15:40;12.20;93.30
12229;DHT22;6177;52.402;9.800;2022-09-12T05:18:25;12.20;93.30
12229;DHT22;6177;52.402;9.800;2022-09-12T05:21:12;12.30;93.30
12229;DHT22;6177;52.402;9.800;2022-09-12T05:23:57;12.30;93.30
12229;DHT22;6177;52.402;9.800;2022-09-12T05:26:43;12.30;93.30
12229;DHT22;6177;52.402;9.800;2022-09-12T05:29:28;12.30;93.30
12229;DHT22;6177;52.402;9.800;2022-09-12T05:32:12;12.40;93.20
12229;DHT22;6177;52.402;9.800;2022-09-12T05:34:58;12.40;93.20
12229;DHT22;6177;52.402;9.800;2022-09-12T05:37:42;12.40;93.20
12229;DHT22;6177;52.402;9.800;2022-09-12T05:40:27;12.50;93.20
12229;DHT22;6177;52.402;9.800;2022-09-12T05:43:12;12.60;93.20
12229;DHT22;6177;52.402;9.800;2022-09-12T05:46:04;12.60;93.20
12229;DHT22;6177;52.402;9.800;2022-09-12T05:48:52;12.70;93.10
12229;DHT22;6177;52.402;9.800;2022-09-12T05:51:41;12.70;93.10
12229;DHT22;6177;52.402;9.800;2022-09-12T05:54:26;12.80;93.10
12229;DHT22;6177;52.402;9.800;2022-09-12T05:57:11;12.80;93.10
12229;DHT22;6177;52.402;9.800;2022-09-12T05:59:56;12.90;93.10
12229;DHT22;6177;52.402;9.800;2022-09-12T06:02:40;12.90;93.00
12229;DHT22;6177;52.402;9.800;2022-09-12T06:05:25;13.00;93.00
12229;DHT22;6177;52.402;9.800;2022-09-12T06:08:10;13.10;93.00
12229;DHT22;6177;52.402;9.800;2022-09-12T06:11:05;13.20;92.90
12229;DHT22;6177;52.402;9.800;2022-09-12T06:13:50;13.20;92.80
12229;DHT22;6177;52.402;9.800;2022-09-12T06:16:35;13.30;92.80
12229;DHT22;6177;52.402;9.800;2022-09-12T06:19:21;13.40;92.70
12229;DHT22;6177;52.402;9.800;2022-09-12T06:22:07;13.50;92.70
12229;DHT22;6177;52.402;9.800;2022-09-12T06:24:51;13.60;92.60
12229;DHT22;6177;52.402;9.800;2022-09-12T06:27:36;13.70;92.60
12229;DHT22;6177;52.402;9.800;2022-09-12T06:30:20;13.80;92.50
12229;DHT22;6177;52.402;9.800;2022-09-12T06:33:06;13.80;92.40
12229;DHT22;6177;52.402;9.800;2022-09-12T06:35:50;13.90;92.30
12229;DHT22;6177;52.402;9.800;2022-09-12T06:38:35;14.00;92.20
12229;DHT22;6177;52.402;9.800;2022-09-12T06:41:21;14.10;92.10
12229;DHT22;6177;52.402;9.800;2022-09-12T06:44:05;14.20;92.00
12229;DHT22;6177;52.402;9.800;2022-09-12T06:46:50;14.30;91.90
12229;DHT22;6177;52.402;9.800;2022-09-12T06:49:36;14.30;91.90
12229;DHT22;6177;52.402;9.800;2022-09-12T06:52:21;14.50;91.80
12229;DHT22;6177;52.402;9.800;2022-09-12T06:55:06;14.50;91.80
12229;DHT22;6177;52.402;9.800;2022-09-12T06:57:51;14.70;91.70
12229;DHT22;6177;52.402;9.800;2022-09-12T07:00:35;14.80;91.60
12229;DHT22;6177;52.402;9.800;2022-09-12T07:03:20;14.80;91.50
12229;DHT22;6177;52.402;9.800;2022-09-12T07:06:10;15.00;91.40
12229;DHT22;6177;52.402;9.800;2022-09-12T07:08:56;15.10;91.20
12229;DHT22;6177;52.402;9.800;2022-09-12T07:11:42;15.20;91.00
12229;DHT22;6177;52.402;9.800;2022-09-12T07:14:27;15.40;90.80
12229;DHT22;6177;52.402;9.800;2022-09-12T07:17:11;15.50;90.70
12229;DHT22;6177;52.402;9.800;2022-09-12T07:19:56;15.60;90.50
12229;DHT22;6177;52.402;9.800;2022-09-12T07:22:40;15.70;90.10
12229;DHT22;6177;52.402;9.800;2022-09-12T07:25:25;15.80;89.80
12229;DHT22;6177;52.402;9.800;2022-09-12T07:28:10;15.90;89.60
12229;DHT22;6177;52.402;9.800;2022-09-12T07:30:55;15.90;89.50
12229;DHT22;6177;52.402;9.800;2022-09-12T07:33:41;16.00;89.50
12229;DHT22;6177;52.402;9.800;2022-09-12T07:36:26;16.10;89.30
12229;DHT22;6177;52.402;9.800;2022-09-12T07:39:11;16.20;89.10
12229;DHT22;6177;52.402;9.800;2022-09-12T07:41:55;16.30;88.80
12229;DHT22;6177;52.402;9.800;2022-09-12T07:44:40;16.40;88.50
12229;DHT22;6177;52.402;9.800;2022-09-12T07:47:25;16.50;88.30
12229;DHT22;6177;52.402;9.800;2022-09-12T07:50:09;16.70;88.10
12229;DHT22;6177;52.402;9.800;2022-09-12T07:52:54;16.80;87.70
12229;DHT22;6177;52.402;9.800;2022-09-12T07:55:39;16.90;87.40
12229;DHT22;6177;52.402;9.800;2022-09-12T07:58:24;17.10;86.90
12229;DHT22;6177;52.402;9.800;2022-09-12T08:01:11;17.20;86.10
12229;DHT22;6177;52.402;9.800;2022-09-12T08:03:58;17.30;85.60
12229;DHT22;6177;52.402;9.800;2022-09-12T08:06:43;17.50;85.00
12229;DHT22;6177;52.402;9.800;2022-09-12T08:09:27;17.60;84.60
12229;DHT22;6177;52.402;9.800;2022-09-12T08:12:13;17.70;83.50
12229;DHT22;6177;52.402;9.800;2022-09-12T08:14:58;17.80;82.40
12229;DHT22;6177;52.402;9.800;2022-09-12T08:17:42;17.90;82.20
12229;DHT22;6177;52.402;9.800;2022-09-12T08:20:27;17.90;81.70
12229;DHT22;6177;52.402;9.800;2022-09-12T08:23:11;18.10;81.00
12229;DHT22;6177;52.402;9.800;2022-09-12T08:25:57;18.20;80.90
12229;DHT22;6177;52.402;9.800;2022-09-12T08:28:44;18.30;80.00
12229;DHT22;6177;52.402;9.800;2022-09-12T08:31:28;18.50;79.80
12229;DHT22;6177;52.402;9.800;2022-09-12T08:34:21;18.60;79.30
12229;DHT22;6177;52.402;9.800;2022-09-12T08:37:05;18.80;78.00
12229;DHT22;6177;52.402;9.800;2022-09-12T08:39:50;18.90;77.50
12229;DHT22;6177;52.402;9.800;2022-09-12T08:45:41;19.20;76.90
12229;DHT22;6177;52.402;9.800;2022-09-12T08:48:29;19.40;75.40
12229;DHT22;6177;52.402;9.800;2022-09-12T08:51:16;19.50;74.80
12229;DHT22;6177;52.402;9.800;2022-09-12T08:54:02;19.60;74.30
12229;DHT22;6177;52.402;9.800;2022-09-12T08:56:48;19.70;73.80
12229;DHT22;6177;52.402;9.800;2022-09-12T08:59:40;19.90;73.40
12229;DHT22;6177;52.402;9.800;2022-09-12T09:15:14;20.70;70.50
12229;DHT22;6177;52.402;9.800;2022-09-12T09:18:33;20.90;69.40
12229;DHT22;6177;52.402;9.800;2022-09-12T09:21:36;21.00;68.90
12229;DHT22;6177;52.402;9.800;2022-09-12T09:24:27;21.00;68.60
12229;DHT22;6177;52.402;9.800;2022-09-12T09:27:32;21.10;68.70
12229;DHT22;6177;52.402;9.800;2022-09-12T09:30:19;21.30;68.20
12229;DHT22;6177;52.402;9.800;2022-09-12T09:33:09;21.40;67.60
12229;DHT22;6177;52.402;9.800;2022-09-12T09:39:04;21.60;66.80
12229;DHT22;6177;52.402;9.800;2022-09-12T09:42:18;21.70;66.10
12229;DHT22;6177;52.402;9.800;2022-09-12T09:45:16;21.70;66.20
12229;DHT22;6177;52.402;9.800;2022-09-12T09:48:18;21.90;66.00
12229;DHT22;6177;52.402;9.800;2022-09-12T09:51:05;21.90;65.90
12229;DHT22;6177;52.402;9.800;2022-09-12T09:54:04;22.00;65.50
12229;DHT22;6177;52.402;9.800;2022-09-12T09:56:54;22.10;66.10
12229;DHT22;6177;52.402;9.800;2022-09-12T09:59:39;22.30;65.70
12229;DHT22;6177;52.402;9.800;2022-09-12T10:02:24;22.40;65.20
12229;DHT22;6177;52.402;9.800;2022-09-12T10:05:15;22.50;64.70
12229;DHT22;6177;52.402;9.800;2022-09-12T10:08:02;22.70;63.90
12229;DHT22;6177;52.402;9.800;2022-09-12T10:10:53;22.80;63.50
12229;DHT22;6177;52.402;9.800;2022-09-12T10:16:49;23.00;63.00
12229;DHT22;6177;52.402;9.800;2022-09-12T10:19:38;23.10;62.60
12229;DHT22;6177;52.402;9.800;2022-09-12T10:22:26;23.30;62.50
12229;DHT22;6177;52.402;9.800;2022-09-12T10:25:15;23.40;61.80
12229;DHT22;6177;52.402;9.800;2022-09-12T10:28:02;23.50;61.90
12229;DHT22;6177;52.402;9.800;2022-09-12T10:30:53;23.70;61.80
12229;DHT22;6177;52.402;9.800;2022-09-12T10:33:47;23.80;60.80
12229;DHT22;6177;52.402;9.800;2022-09-12T10:36:38;23.70;57.00
12229;DHT22;6177;52.402;9.800;2022-09-12T10:39:23;23.60;55.80
12229;DHT22;6177;52.402;9.800;2022-09-12T10:42:13;23.70;56.30
12229;DHT22;6177;52.402;9.800;2022-09-12T10:44:58;23.80;56.20
12229;DHT22;6177;52.402;9.800;2022-09-12T10:47:43;23.80;55.90
12229;DHT22;6177;52.402;9.800;2022-09-12T10:53:31;24.00;56.30
12229;DHT22;6177;52.402;9.800;2022-09-12T10:56:19;24.20;53.80
12229;DHT22;6177;52.402;9.800;2022-09-12T11:02:33;24.50;52.20
12229;DHT22;6177;52.402;9.800;2022-09-12T11:06:01;24.60;53.00
12229;DHT22;6177;52.402;9.800;2022-09-12T11:09:09;24.70;51.60
12229;DHT22;6177;52.402;9.800;2022-09-12T11:22:00;24.70;50.40
12229;DHT22;6177;52.402;9.800;2022-09-12T11:28:11;24.60;49.70
12229;DHT22;6177;52.402;9.800;2022-09-12T11:34:22;25.00;50.20
12229;DHT22;6177;52.402;9.800;2022-09-12T11:46:17;25.10;48.10
12229;DHT22;6177;52.402;9.800;2022-09-12T11:52:23;25.00;46.50
12229;DHT22;6177;52.402;9.800;2022-09-12T11:55:16;24.90;46.90
12229;DHT22;6177;52.402;9.800;2022-09-12T11:58:01;24.90;45.70
12229;DHT22;6177;52.402;9.800;2022-09-12T12:00:49;24.90;46.40
12229;DHT22;6177;52.402;9.800;2022-09-12T12:03:40;24.80;45.30
12229;DHT22;6177;52.402;9.800;2022-09-12T12:06:30;24.80;45.10
12229;DHT22;6177;52.402;9.800;2022-09-12T12:09:16;24.90;45.30
12229;DHT22;6177;52.402;9.800;2022-09-12T12:12:06;25.20;44.00
12229;DHT22;6177;52.402;9.800;2022-09-12T12:14:53;25.30;43.80
12229;DHT22;6177;52.402;9.800;2022-09-12T12:17:39;25.40;43.40
12229;DHT22;6177;52.402;9.800;2022-09-12T12:20:23;25.40;42.60
12229;DHT22;6177;52.402;9.800;2022-09-12T12:23:41;25.40;42.10
12229;DHT22;6177;52.402;9.800;2022-09-12T12:27:22;25.30;42.40
12229;DHT22;6177;52.402;9.800;2022-09-12T12:38:45;26.40;40.20
12229;DHT22;6177;52.402;9.800;2022-09-12T12:47:27;27.10;39.70
12229;DHT22;6177;52.402;9.800;2022-09-12T12:55:50;27.40;38.10
12229;DHT22;6177;52.402;9.800;2022-09-12T12:58:37;27.60;36.80
12229;DHT22;6177;52.402;9.800;2022-09-12T13:01:24;27.80;37.70
12229;DHT22;6177;52.402;9.800;2022-09-12T13:04:20;28.50;37.80
12229;DHT22;6177;52.402;9.800;2022-09-12T13:07:07;29.30;37.50
12229;DHT22;6177;52.402;9.800;2022-09-12T13:09:56;30.10;36.80
12229;DHT22;6177;52.402;9.800;2022-09-12T13:12:45;30.60;35.90
12229;DHT22;6177;52.402;9.800;2022-09-12T13:18:25;31.80;35.20
12229;DHT22;6177;52.402;9.800;2022-09-12T13:24:02;31.00;34.10
12229;DHT22;6177;52.402;9.800;2022-09-12T13:26:47;31.10;34.20
12229;DHT22;6177;52.402;9.800;2022-09-12T13:29:32;31.10;34.00
12229;DHT22;6177;52.402;9.800;2022-09-12T13:32:17;30.80;34.80
12229;DHT22;6177;52.402;9.800;2022-09-12T13:35:12;31.10;35.10
12229;DHT22;6177;52.402;9.800;2022-09-12T13:41:42;31.70;34.20
12229;DHT22;6177;52.402;9.800;2022-09-12T13:44:40;32.00;33.60
12229;DHT22;6177;52.402;9.800;2022-09-12T13:50:35;32.10;33.20
12229;DHT22;6177;52.402;9.800;2022-09-12T13:53:23;31.90;33.40
12229;DHT22;6177;52.402;9.800;2022-09-12T13:56:15;31.80;31.90
12229;DHT22;6177;52.402;9.800;2022-09-12T13:59:01;31.40;32.70
12229;DHT22;6177;52.402;9.800;2022-09-12T14:01:47;31.50;32.70
12229;DHT22;6177;52.402;9.800;2022-09-12T14:04:32;32.20;32.60
12229;DHT22;6177;52.402;9.800;2022-09-12T14:07:46;32.90;31.60
12229;DHT22;6177;52.402;9.800;2022-09-12T14:10:37;33.40;31.00
12229;DHT22;6177;52.402;9.800;2022-09-12T14:13:24;33.70;30.60
12229;DHT22;6177;52.402;9.800;2022-09-12T14:16:09;33.70;30.20
12229;DHT22;6177;52.402;9.800;2022-09-12T14:18:54;33.30;29.90
12229;DHT22;6177;52.402;9.800;2022-09-12T14:21:39;33.00;30.00
12229;DHT22;6177;52.402;9.800;2022-09-12T14:24:24;32.50;30.60
12229;DHT22;6177;52.402;9.800;2022-09-12T14:27:09;32.20;30.10
12229;DHT22;6177;52.402;9.800;2022-09-12T14:36:09;32.60;29.60
12229;DHT22;6177;52.402;9.800;2022-09-12T14:39:06;32.40;29.80
12229;DHT22;6177;52.402;9.800;2022-09-12T14:42:13;32.50;29.80
12229;DHT22;6177;52.402;9.800;2022-09-12T14:45:10;33.00;30.00
12229;DHT22;6177;52.402;9.800;2022-09-12T14:47:57;33.20;30.00
12229;DHT22;6177;52.402;9.800;2022-09-12T14:50:42;33.60;29.80
12229;DHT22;6177;52.402;9.800;2022-09-12T14:53:35;33.60;29.70
12229;DHT22;6177;52.402;9.800;2022-09-12T14:56:21;33.50;29.80
12229;DHT22;6177;52.402;9.800;2022-09-12T14:59:36;33.50;29.80
12229;DHT22;6177;52.402;9.800;2022-09-12T15:02:24;33.50;30.50
12229;DHT22;6177;52.402;9.800;2022-09-12T15:07:57;33.80;29.60
12229;DHT22;6177;52.402;9.800;2022-09-12T15:10:42;34.10;29.50
12229;DHT22;6177;52.402;9.800;2022-09-12T15:13:27;34.60;29.30
12229;DHT22;6177;52.402;9.800;2022-09-12T15:16:12;35.00;29.00
12229;DHT22;6177;52.402;9.800;2022-09-12T15:18:56;35.00;28.30
12229;DHT22;6177;52.402;9.800;2022-09-12T15:21:40;34.80;28.40
12229;DHT22;6177;52.402;9.800;2022-09-12T15:24:25;34.80;28.60
12229;DHT22;6177;52.402;9.800;2022-09-12T15:27:09;35.00;28.70
12229;DHT22;6177;52.402;9.800;2022-09-12T15:29:54;35.20;28.60
12229;DHT22;6177;52.402;9.800;2022-09-12T15:32:41;35.10;28.60
12229;DHT22;6177;52.402;9.800;2022-09-12T15:35:26;34.60;28.00
12229;DHT22;6177;52.402;9.800;2022-09-12T15:38:11;34.10;28.10
12229;DHT22;6177;52.402;9.800;2022-09-12T15:40:55;33.30;28.70
12229;DHT22;6177;52.402;9.800;2022-09-12T15:43:40;32.50;29.10
12229;DHT22;6177;52.402;9.800;2022-09-12T15:46:24;32.20;29.20
12229;DHT22;6177;52.402;9.800;2022-09-12T15:49:09;31.60;29.50
12229;DHT22;6177;52.402;9.800;2022-09-12T15:51:53;30.80;30.00
12229;DHT22;6177;52.402;9.800;2022-09-12T15:54:37;30.00;30.90
12229;DHT22;6177;52.402;9.800;2022-09-12T15:57:22;29.30;31.80
12229;DHT22;6177;52.402;9.800;2022-09-12T16:00:06;28.80;32.80
12229;DHT22;6177;52.402;9.800;2022-09-12T16:02:56;28.50;33.30
12229;DHT22;6177;52.402;9.800;2022-09-12T16:05:40;28.10;33.90
12229;DHT22;6177;52.402;9.800;2022-09-12T16:08:25;27.80;34.30
12229;DHT22;6177;52.402;9.800;2022-09-12T16:11:11;27.70;34.70
12229;DHT22;6177;52.402;9.800;2022-09-12T16:13:58;27.40;35.00
12229;DHT22;6177;52.402;9.800;2022-09-12T16:16:43;27.20;35.50
12229;DHT22;6177;52.402;9.800;2022-09-12T16:19:27;27.00;35.70
12229;DHT22;6177;52.402;9.800;2022-09-12T16:22:11;26.80;35.90
12229;DHT22;6177;52.402;9.800;2022-09-12T16:24:55;26.60;36.00
12229;DHT22;6177;52.402;9.800;2022-09-12T16:27:40;26.50;36.30
12229;DHT22;6177;52.402;9.800;2022-09-12T16:30:24;26.30;36.50
12229;DHT22;6177;52.402;9.800;2022-09-12T16:33:08;26.20;36.60
12229;DHT22;6177;52.402;9.800;2022-09-12T16:35:59;26.00;36.90
12229;DHT22;6177;52.402;9.800;2022-09-12T16:38:45;25.90;37.20
12229;DHT22;6177;52.402;9.800;2022-09-12T16:41:29;25.80;37.50
12229;DHT22;6177;52.402;9.800;2022-09-12T16:44:14;25.70;37.90
12229;DHT22;6177;52.402;9.800;2022-09-12T16:46:58;25.70;37.80
12229;DHT22;6177;52.402;9.800;2022-09-12T16:49:42;25.50;38.00
12229;DHT22;6177;52.402;9.800;2022-09-12T16:52:26;25.40;38.50
12229;DHT22;6177;52.402;9.800;2022-09-12T16:55:12;25.30;38.80
12229;DHT22;6177;52.402;9.800;2022-09-12T16:57:56;25.20;39.20
12229;DHT22;6177;52.402;9.800;2022-09-12T17:00:40;25.10;39.30
12229;DHT22;6177;52.402;9.800;2022-09-12T17:03:25;25.00;39.80
12229;DHT22;6177;52.402;9.800;2022-09-12T17:08:57;24.80;40.30
12229;DHT22;6177;52.402;9.800;2022-09-12T17:11:44;24.70;41.00
12229;DHT22;6177;52.402;9.800;2022-09-12T17:14:30;24.60;41.10
12229;DHT22;6177;52.402;9.800;2022-09-12T17:17:14;24.50;41.50
12229;DHT22;6177;52.402;9.800;2022-09-12T17:19:59;24.40;41.90
12229;DHT22;6177;52.402;9.800;2022-09-12T17:22:43;24.30;42.20
12229;DHT22;6177;52.402;9.800;2022-09-12T17:25:27;24.20;42.80
12229;DHT22;6177;52.402;9.800;2022-09-12T17:28:12;24.10;42.90
12229;DHT22;6177;52.402;9.800;2022-09-12T17:30:57;23.90;43.20
12229;DHT22;6177;52.402;9.800;2022-09-12T17:33:42;23.80;43.60
12229;DHT22;6177;52.402;9.800;2022-09-12T17:36:27;23.60;44.00
12229;DHT22;6177;52.402;9.800;2022-09-12T17:39:12;23.50;44.50
12229;DHT22;6177;52.402;9.800;2022-09-12T17:41:57;23.40;45.00
12229;DHT22;6177;52.402;9.800;2022-09-12T17:44:43;23.20;45.50
12229;DHT22;6177;52.402;9.800;2022-09-12T17:47:28;23.10;46.20
12229;DHT22;6177;52.402;9.800;2022-09-12T17:50:12;22.90;46.50
12229;DHT22;6177;52.402;9.800;2022-09-12T17:52:56;22.80;46.70
12229;DHT22;6177;52.402;9.800;2022-09-12T17:55:41;22.60;47.10
12229;DHT22;6177;52.402;9.800;2022-09-12T17:58:26;22.50;47.70
12229;DHT22;6177;52.402;9.800;2022-09-12T18:01:11;22.40;48.40
12229;DHT22;6177;52.402;9.800;2022-09-12T18:04:15;22.30;48.50
12229;DHT22;6177;52.402;9.800;2022-09-12T18:07:00;22.10;48.80
12229;DHT22;6177;52.402;9.800;2022-09-12T18:09:45;22.00;49.50
12229;DHT22;6177;52.402;9.800;2022-09-12T18:12:34;21.90;50.40
12229;DHT22;6177;52.402;9.800;2022-09-12T18:15:18;21.80;50.50
12229;DHT22;6177;52.402;9.800;2022-09-12T18:18:09;21.70;51.20
12229;DHT22;6177;52.402;9.800;2022-09-12T18:20:54;21.60;51.50
12229;DHT22;6177;52.402;9.800;2022-09-12T18:23:38;21.50;52.80
12229;DHT22;6177;52.402;9.800;2022-09-12T18:26:22;21.40;52.30
12229;DHT22;6177;52.402;9.800;2022-09-12T18:29:06;21.30;53.00
12229;DHT22;6177;52.402;9.800;2022-09-12T18:31:51;21.20;53.40
12229;DHT22;6177;52.402;9.800;2022-09-12T18:34:35;21.10;53.80
12229;DHT22;6177;52.402;9.800;2022-09-12T18:37:21;21.10;54.30
12229;DHT22;6177;52.402;9.800;2022-09-12T18:40:05;21.00;54.70
12229;DHT22;6177;52.402;9.800;2022-09-12T18:42:50;20.90;55.20
12229;DHT22;6177;52.402;9.800;2022-09-12T18:45:34;20.90;55.90
12229;DHT22;6177;52.402;9.800;2022-09-12T18:48:19;20.80;56.20
12229;DHT22;6177;52.402;9.800;2022-09-12T18:51:04;20.70;56.40
12229;DHT22;6177;52.402;9.800;2022-09-12T18:53:52;20.60;57.00
12229;DHT22;6177;52.402;9.800;2022-09-12T18:56:38;20.60;57.60
12229;DHT22;6177;52.402;9.800;2022-09-12T18:59:24;20.50;57.80
12229;DHT22;6177;52.402;9.800;2022-09-12T19:02:10;20.40;57.90
12229;DHT22;6177;52.402;9.800;2022-09-12T19:04:58;20.30;58.40
12229;DHT22;6177;52.402;9.800;2022-09-12T19:07:42;20.20;59.00
12229;DHT22;6177;52.402;9.800;2022-09-12T19:10:27;20.10;59.70
12229;DHT22;6177;52.402;9.800;2022-09-12T19:13:11;20.10;60.10
12229;DHT22;6177;52.402;9.800;2022-09-12T19:15:55;20.00;60.10
12229;DHT22;6177;52.402;9.800;2022-09-12T19:18:41;19.90;60.40
12229;DHT22;6177;52.402;9.800;2022-09-12T19:21:27;19.80;60.40
12229;DHT22;6177;52.402;9.800;2022-09-12T19:24:12;19.80;60.80
12229;DHT22;6177;52.402;9.800;2022-09-12T19:26:57;19.70;60.90
12229;DHT22;6177;52.402;9.800;2022-09-12T19:29:41;19.60;60.90
12229;DHT22;6177;52.402;9.800;2022-09-12T19:32:26;19.60;61.20
12229;DHT22;6177;52.402;9.800;2022-09-12T19:35:10;19.40;61.40
12229;DHT22;6177;52.402;9.800;2022-09-12T19:37:56;19.40;61.70
12229;DHT22;6177;52.402;9.800;2022-09-12T19:40:41;19.40;61.90
12229;DHT22;6177;52.402;9.800;2022-09-12T19:43:25;19.30;62.10
12229;DHT22;6177;52.402;9.800;2022-09-12T19:46:17;19.30;62.10
12229;DHT22;6177;52.402;9.800;2022-09-12T19:49:02;19.20;62.10
12229;DHT22;6177;52.402;9.800;2022-09-12T19:51:47;19.10;62.40
12229;DHT22;6177;52.402;9.800;2022-09-12T19:54:31;19.10;62.40
12229;DHT22;6177;52.402;9.800;2022-09-12T19:57:15;19.00;62.10
12229;DHT22;6177;52.402;9.800;2022-09-12T20:00:01;19.00;62.30
12229;DHT22;6177;52.402;9.800;2022-09-12T20:02:50;18.90;62.20
12229;DHT22;6177;52.402;9.800;2022-09-12T20:05:35;18.90;62.30
12229;DHT22;6177;52.402;9.800;2022-09-12T20:08:38;18.80;62.40
12229;DHT22;6177;52.402;9.800;2022-09-12T20:11:23;18.80;62.70